Time;durP1;ratioP1;P1;durP2;ratioP2;P2;SDS_P1;SDS_P2;PMS_P1;PMS_P2;Temp;Humidity;BMP_temperature;BMP_pressure;BME280_temperature;BME280_humidity;BME280_pressure;Samples;Min_cycle;Max_cycle;Signal;HPM_P1;HPM_P2
2021/08/30 00:01:44;;;;;;;12.57;7.03;;;16.40;99.90;;;;;;4379495;32;20203;-62
2021/08/30 00:04:11;;;;;;;11.27;7.20;;;16.50;99.90;;;;;;4390895;32;20164;-63
2021/08/30 00:06:40;;;;;;;11.73;7.13;;;16.50;99.90;;;;;;4391590;32;20183;-62
2021/08/30 00:09:08;;;;;;;9.77;7.13;;;16.50;99.90;;;;;;4391616;32;20172;-63
2021/08/30 00:11:36;;;;;;;11.10;6.37;;;16.50;99.90;;;;;;4384357;32;20207;-62
2021/08/30 00:14:03;;;;;;;12.20;6.67;;;16.60;99.90;;;;;;4387583;32;20190;-61
2021/08/30 00:16:30;;;;;;;11.77;6.30;;;16.60;99.90;;;;;;4389266;32;20179;-62
2021/08/30 00:18:57;;;;;;;9.10;6.83;;;16.60;99.90;;;;;;4391219;32;20194;-62
2021/08/30 00:21:24;;;;;;;9.60;6.23;;;16.60;99.90;;;;;;4384472;32;20212;-62
2021/08/30 00:23:51;;;;;;;11.53;6.97;;;16.70;99.90;;;;;;4375734;32;20516;-61
2021/08/30 00:26:18;;;;;;;10.23;7.63;;;16.60;99.90;;;;;;4379942;32;20175;-62
2021/08/30 00:28:46;;;;;;;10.33;6.97;;;16.60;99.90;;;;;;4390501;32;20178;-62
2021/08/30 00:31:13;;;;;;;12.23;7.93;;;16.60;99.90;;;;;;4386643;32;20175;-63
2021/08/30 00:33:40;;;;;;;9.47;7.10;;;16.60;99.90;;;;;;4391211;32;20168;-63
2021/08/30 00:36:07;;;;;;;9.85;6.70;;;16.60;99.90;;;;;;4391255;32;20156;-63
2021/08/30 00:38:34;;;;;;;9.57;7.20;;;16.70;99.90;;;;;;4390957;32;20596;-64
2021/08/30 00:41:01;;;;;;;10.10;7.43;;;16.70;99.90;;;;;;4390876;32;20501;-63
2021/08/30 00:43:28;;;;;;;10.80;7.73;;;16.70;99.90;;;;;;4384835;32;20179;-62
2021/08/30 00:45:56;;;;;;;13.57;7.33;;;16.70;99.90;;;;;;4383225;32;20191;-63
2021/08/30 00:48:23;;;;;;;8.87;6.80;;;16.70;99.90;;;;;;4389475;32;20519;-63
2021/08/30 00:50:50;;;;;;;10.20;7.27;;;16.70;99.90;;;;;;4386310;32;20219;-62
2021/08/30 00:53:17;;;;;;;13.07;7.60;;;16.80;99.90;;;;;;4390601;32;20238;-63
2021/08/30 00:55:44;;;;;;;11.17;7.57;;;16.70;99.90;;;;;;4389856;32;20607;-60
2021/08/30 00:58:11;;;;;;;10.63;7.50;;;16.70;99.90;;;;;;4390809;32;20179;-62
2021/08/30 01:00:38;;;;;;;12.13;7.73;;;16.80;99.90;;;;;;4390796;32;20178;-62
2021/08/30 01:03:06;;;;;;;9.83;6.97;;;16.70;99.90;;;;;;4392238;32;20203;-63
2021/08/30 01:05:33;;;;;;;10.07;7.00;;;16.70;99.90;;;;;;4390207;32;20671;-62
2021/08/30 01:08:06;;;;;;;15.17;8.47;;;16.70;99.90;;;;;;4388658;32;20484;-61
2021/08/30 01:10:46;;;;;;;10.90;7.43;;;16.80;99.90;;;;;;4377501;32;20179;-61
2021/08/30 01:13:19;;;;;;;14.73;8.13;;;16.70;99.90;;;;;;4389205;32;20229;-63
2021/08/30 01:15:46;;;;;;;12.27;7.87;;;16.70;99.90;;;;;;4386389;32;20202;-62
2021/08/30 01:18:18;;;;;;;10.30;7.87;;;16.70;99.90;;;;;;4375764;32;20205;-62
2021/08/30 01:20:59;;;;;;;11.07;8.00;;;16.80;99.90;;;;;;4375560;32;20214;-63
2021/08/30 01:23:28;;;;;;;10.57;8.13;;;16.80;99.90;;;;;;4379346;32;20247;-61
2021/08/30 01:26:00;;;;;;;10.70;7.43;;;16.80;99.90;;;;;;4390039;32;20186;-62
2021/08/30 01:28:35;;;;;;;11.60;7.83;;;16.80;99.90;;;;;;4389788;32;20179;-62
2021/08/30 01:31:09;;;;;;;10.57;6.83;;;16.80;99.90;;;;;;4390872;32;20175;-62
2021/08/30 01:33:39;;;;;;;12.87;7.97;;;16.80;99.90;;;;;;4390355;32;20201;-62
2021/08/30 01:36:06;;;;;;;10.57;7.83;;;16.80;99.90;;;;;;4390359;32;20187;-62
2021/08/30 01:38:33;;;;;;;13.83;8.97;;;16.80;99.90;;;;;;4390923;32;20217;-61
2021/08/30 01:41:01;;;;;;;12.63;7.53;;;16.80;99.90;;;;;;4390664;32;20507;-62
2021/08/30 01:43:29;;;;;;;11.90;8.63;;;16.80;99.90;;;;;;4389596;32;20156;-62
2021/08/30 01:45:57;;;;;;;11.40;7.93;;;16.70;99.90;;;;;;4391003;32;20159;-62
2021/08/30 01:48:24;;;;;;;11.67;8.40;;;16.60;99.90;;;;;;4390604;32;20206;-62
2021/08/30 01:50:52;;;;;;;10.37;8.00;;;16.50;99.90;;;;;;4391104;32;20223;-62
2021/08/30 01:53:20;;;;;;;12.13;8.43;;;16.40;99.90;;;;;;4391944;32;20611;-62
2021/08/30 01:55:49;;;;;;;11.17;8.20;;;16.40;99.90;;;;;;4383051;32;20231;-62
2021/08/30 02:01:01;;;;;;;12.20;8.37;;;16.40;99.90;;;;;;4387530;32;20535;-62
2021/08/30 02:03:30;;;;;;;16.40;9.97;;;16.40;99.90;;;;;;4235906;32;5034606;-61
2021/08/30 02:06:00;;;;;;;13.70;8.57;;;16.40;99.90;;;;;;4377791;32;20152;-62
2021/08/30 02:08:29;;;;;;;12.97;9.33;;;16.40;99.90;;;;;;4390180;32;20152;-62
2021/08/30 02:11:01;;;;;;;11.40;8.67;;;16.40;99.90;;;;;;4390178;32;20170;-63
2021/08/30 02:13:29;;;;;;;12.87;8.13;;;16.40;99.90;;;;;;4379046;32;20144;-64
2021/08/30 02:15:57;;;;;;;14.93;8.97;;;16.50;99.90;;;;;;4389710;32;20537;-63
2021/08/30 02:18:32;;;;;;;16.57;9.83;;;16.50;99.90;;;;;;4390532;32;20682;-62
2021/08/30 02:21:07;;;;;;;15.03;9.77;;;16.40;99.90;;;;;;4389693;32;20239;-62
2021/08/30 02:23:38;;;;;;;16.13;10.83;;;16.40;99.90;;;;;;4382066;32;20195;-62
2021/08/30 02:26:11;;;;;;;12.90;8.77;;;16.40;99.90;;;;;;4390120;32;20516;-62
2021/08/30 02:28:40;;;;;;;12.13;9.33;;;16.40;99.90;;;;;;4389839;32;20152;-63
2021/08/30 02:31:08;;;;;;;16.67;9.50;;;16.40;99.90;;;;;;4390716;32;20535;-62
2021/08/30 02:33:35;;;;;;;13.90;8.90;;;16.40;99.90;;;;;;4386404;32;20231;-63
2021/08/30 02:36:05;;;;;;;11.90;8.40;;;16.40;99.90;;;;;;4389469;32;20219;-62
2021/08/30 02:38:34;;;;;;;15.70;9.20;;;16.40;99.90;;;;;;4376129;32;20556;-62
2021/08/30 02:41:02;;;;;;;14.80;8.87;;;16.30;99.90;;;;;;4383997;32;20167;-62
2021/08/30 02:43:30;;;;;;;11.57;9.10;;;16.10;99.90;;;;;;4390620;32;20148;-63
2021/08/30 02:45:58;;;;;;;13.50;8.83;;;16.10;99.90;;;;;;4378505;32;20144;-62
2021/08/30 02:48:26;;;;;;;14.97;8.93;;;16.00;99.90;;;;;;4389108;32;20164;-63
2021/08/30 02:50:54;;;;;;;15.00;9.97;;;15.90;99.90;;;;;;4390187;32;20148;-63
2021/08/30 02:53:24;;;;;;;12.73;9.00;;;15.90;99.90;;;;;;4376547;32;20605;-62
2021/08/30 02:55:53;;;;;;;14.03;9.67;;;15.80;99.90;;;;;;4390657;32;20145;-61
2021/08/30 02:58:21;;;;;;;12.33;8.47;;;15.80;99.90;;;;;;4393095;32;20174;-63
2021/08/30 03:00:48;;;;;;;13.43;9.23;;;15.80;99.90;;;;;;4392043;32;20168;-63
2021/08/30 03:03:16;;;;;;;12.73;9.00;;;15.80;99.90;;;;;;4391924;32;20160;-62
2021/08/30 03:05:44;;;;;;;12.60;9.60;;;15.80;99.90;;;;;;4390586;32;20613;-62
2021/08/30 03:08:11;;;;;;;14.90;9.67;;;15.80;99.90;;;;;;4388360;32;20267;-63
2021/08/30 03:10:47;;;;;;;13.67;9.53;;;15.80;99.90;;;;;;4373823;32;20220;-63
2021/08/30 03:13:15;;;;;;;14.17;9.77;;;15.80;99.90;;;;;;4372777;32;20615;-62
2021/08/30 03:15:54;;;;;;;14.73;9.63;;;15.90;99.90;;;;;;4382203;32;20156;-61
2021/08/30 03:18:21;;;;;;;16.33;10.17;;;15.90;99.90;;;;;;4380301;32;20205;-63
2021/08/30 03:20:51;;;;;;;15.13;9.30;;;15.90;99.90;;;;;;4390424;32;20148;-63
2021/08/30 03:23:18;;;;;;;15.27;9.23;;;15.90;99.90;;;;;;4389211;32;20222;-62
2021/08/30 03:25:47;;;;;;;14.77;9.67;;;16.00;99.90;;;;;;4377447;32;20175;-61
2021/08/30 03:28:15;;;;;;;14.53;9.83;;;16.00;99.90;;;;;;4391563;32;20194;-61
2021/08/30 03:30:42;;;;;;;15.00;10.60;;;16.00;99.90;;;;;;4392312;32;20234;-64
2021/08/30 03:33:10;;;;;;;17.50;9.93;;;16.00;99.90;;;;;;4393117;32;20167;-63
2021/08/30 03:35:37;;;;;;;11.87;9.57;;;16.10;99.90;;;;;;4380704;32;20223;-63
2021/08/30 03:38:05;;;;;;;16.03;9.33;;;16.10;99.90;;;;;;4393039;32;20781;-64
2021/08/30 03:40:33;;;;;;;14.20;10.00;;;16.10;99.90;;;;;;4382315;32;20178;-64
2021/08/30 03:43:02;;;;;;;13.23;9.57;;;16.20;99.90;;;;;;4377090;32;20584;-63
2021/08/30 03:45:30;;;;;;;16.30;10.27;;;16.20;99.90;;;;;;4388746;32;20476;-63
2021/08/30 03:47:58;;;;;;;16.00;10.63;;;16.10;99.90;;;;;;4379392;32;20256;-62
2021/08/30 03:50:25;;;;;;;14.90;8.97;;;16.20;99.90;;;;;;4386722;32;20198;-63
2021/08/30 03:52:54;;;;;;;15.40;9.87;;;16.20;99.90;;;;;;4391703;32;20608;-63
2021/08/30 03:55:21;;;;;;;12.13;9.73;;;16.20;99.90;;;;;;4391891;32;20156;-62
2021/08/30 03:57:50;;;;;;;16.20;10.47;;;16.30;99.90;;;;;;4391671;32;20174;-63
2021/08/30 04:00:19;;;;;;;16.97;11.77;;;16.20;99.90;;;;;;4387007;32;20167;-62
2021/08/30 04:02:47;;;;;;;16.13;10.43;;;16.30;99.90;;;;;;4382760;32;20163;-62
2021/08/30 04:05:18;;;;;;;14.43;10.63;;;16.30;99.90;;;;;;4385835;32;20174;-64
2021/08/30 04:07:45;;;;;;;14.33;10.37;;;16.30;99.90;;;;;;4391656;32;20207;-63
2021/08/30 04:10:13;;;;;;;11.93;9.23;;;16.40;99.90;;;;;;4389896;32;20160;-62
2021/08/30 04:12:40;;;;;;;19.17;11.00;;;16.40;99.90;;;;;;4390464;32;20504;-64
2021/08/30 04:15:08;;;;;;;18.87;10.77;;;16.40;99.90;;;;;;4392123;32;20560;-63
2021/08/30 04:17:36;;;;;;;13.87;9.50;;;16.50;99.90;;;;;;4390977;32;20217;-63
2021/08/30 04:20:03;;;;;;;16.93;10.90;;;16.50;99.90;;;;;;4391045;32;20223;-63
2021/08/30 04:22:34;;;;;;;17.33;10.23;;;16.50;99.90;;;;;;4388779;32;20148;-61
2021/08/30 04:25:01;;;;;;;15.40;10.57;;;16.50;99.90;;;;;;4389134;32;20156;-64
2021/08/30 04:27:28;;;;;;;20.33;11.30;;;16.50;99.90;;;;;;4391055;32;20152;-63
2021/08/30 04:29:55;;;;;;;19.80;11.67;;;16.50;99.90;;;;;;4390430;32;20267;-63
2021/08/30 04:32:22;;;;;;;15.97;10.83;;;16.40;99.90;;;;;;4391362;32;20207;-63
2021/08/30 04:34:50;;;;;;;15.80;10.93;;;16.50;99.90;;;;;;4392050;32;20507;-62
2021/08/30 04:37:18;;;;;;;17.53;10.83;;;16.50;99.90;;;;;;4390189;32;20215;-62
2021/08/30 04:39:45;;;;;;;17.03;12.13;;;16.50;99.90;;;;;;4389747;32;20245;-63
2021/08/30 04:42:12;;;;;;;15.80;11.57;;;16.50;99.90;;;;;;4392108;32;20480;-62
2021/08/30 04:44:39;;;;;;;18.93;11.00;;;16.50;99.90;;;;;;4392845;32;20223;-64
2021/08/30 04:47:07;;;;;;;16.80;10.53;;;16.60;99.90;;;;;;4391211;32;20484;-64
2021/08/30 04:49:34;;;;;;;19.37;12.37;;;16.60;99.90;;;;;;4390323;32;20250;-63
2021/08/30 04:52:03;;;;;;;16.60;11.93;;;16.60;99.90;;;;;;4390939;32;20600;-63
2021/08/30 04:54:30;;;;;;;19.83;13.30;;;16.60;99.90;;;;;;4376078;32;20163;-62
2021/08/30 04:56:57;;;;;;;17.67;12.47;;;16.60;99.90;;;;;;4384529;32;20238;-63
2021/08/30 04:59:24;;;;;;;18.90;11.97;;;16.50;99.90;;;;;;4391187;32;20152;-64
2021/08/30 05:01:50;;;;;;;16.17;11.83;;;16.60;99.90;;;;;;4378575;32;20172;-64
2021/08/30 05:04:17;;;;;;;17.43;12.20;;;16.60;99.90;;;;;;4383170;32;20163;-63
2021/08/30 05:06:44;;;;;;;24.63;14.33;;;16.60;99.90;;;;;;4391151;32;20183;-62
2021/08/30 05:09:12;;;;;;;19.20;13.23;;;16.60;99.90;;;;;;4390358;32;20509;-63
2021/08/30 05:11:39;;;;;;;18.93;11.93;;;16.60;99.90;;;;;;4383761;32;20594;-63
2021/08/30 05:14:06;;;;;;;23.03;12.37;;;16.60;99.90;;;;;;4390534;32;20180;-63
2021/08/30 05:16:33;;;;;;;22.00;14.47;;;16.60;99.90;;;;;;4390641;32;20223;-63
2021/08/30 05:19:00;;;;;;;18.83;13.63;;;16.70;99.90;;;;;;4393379;32;20224;-62
2021/08/30 05:21:27;;;;;;;23.47;14.40;;;16.70;99.90;;;;;;4379348;32;20262;-63
2021/08/30 05:23:54;;;;;;;19.63;13.37;;;16.70;99.90;;;;;;4379952;32;20216;-62
2021/08/30 05:26:22;;;;;;;18.00;11.90;;;16.70;99.90;;;;;;4383563;32;20211;-62
2021/08/30 05:28:49;;;;;;;18.33;12.63;;;16.70;99.90;;;;;;4381680;32;20155;-63
2021/08/30 05:31:16;;;;;;;23.77;13.77;;;16.80;99.90;;;;;;4383485;32;20211;-61
2021/08/30 05:33:46;;;;;;;19.70;12.30;;;16.80;99.90;;;;;;4381045;32;20297;-62
2021/08/30 05:36:13;;;;;;;17.10;12.60;;;16.80;99.90;;;;;;4375863;32;20160;-62
2021/08/30 05:38:39;;;;;;;27.17;13.83;;;16.90;99.90;;;;;;4385805;32;20658;-63
2021/08/30 05:41:06;;;;;;;21.13;12.50;;;16.90;99.90;;;;;;4381816;32;20199;-62
2021/08/30 05:43:34;;;;;;;18.97;12.93;;;16.90;99.90;;;;;;4385632;32;20299;-62
2021/08/30 05:46:01;;;;;;;26.27;13.70;;;17.00;99.90;;;;;;4388191;32;20151;-62
2021/08/30 05:48:28;;;;;;;20.27;12.87;;;17.00;99.90;;;;;;4387963;32;20144;-62
2021/08/30 05:50:55;;;;;;;18.37;12.53;;;17.00;99.90;;;;;;4384868;32;20156;-62
2021/08/30 05:53:22;;;;;;;20.83;12.50;;;17.10;99.90;;;;;;4383709;32;20611;-62
2021/08/30 05:55:49;;;;;;;21.03;13.17;;;17.20;99.90;;;;;;4385022;32;20148;-61
2021/08/30 05:58:16;;;;;;;20.70;13.83;;;17.30;99.90;;;;;;4380397;32;20152;-63
2021/08/30 06:00:44;;;;;;;25.47;13.83;;;17.30;99.90;;;;;;4378739;32;20640;-63
2021/08/30 06:03:11;;;;;;;18.30;12.50;;;17.30;99.90;;;;;;4384764;32;20182;-62
2021/08/30 06:05:38;;;;;;;21.53;13.70;;;17.40;99.90;;;;;;4389838;32;20160;-62
2021/08/30 06:08:05;;;;;;;22.87;12.47;;;17.40;99.90;;;;;;4388785;32;20163;-62
2021/08/30 06:10:32;;;;;;;17.03;11.63;;;17.50;99.90;;;;;;4386883;32;20167;-62
2021/08/30 06:12:59;;;;;;;20.33;13.27;;;17.60;99.90;;;;;;4381619;32;20171;-63
2021/08/30 06:15:27;;;;;;;19.93;12.23;;;17.60;99.90;;;;;;4377477;32;20174;-62
2021/08/30 06:17:55;;;;;;;17.93;11.47;;;17.70;99.90;;;;;;4384893;32;20156;-62
2021/08/30 06:20:22;;;;;;;17.57;11.93;;;17.70;99.90;;;;;;4387541;32;20595;-61
2021/08/30 06:22:51;;;;;;;18.27;11.80;;;17.80;99.90;;;;;;4376149;32;20149;-63
2021/08/30 06:25:18;;;;;;;17.90;11.27;;;17.90;99.90;;;;;;4381722;32;20164;-63
2021/08/30 06:27:45;;;;;;;17.67;12.03;;;18.00;99.90;;;;;;4385930;32;20140;-63
2021/08/30 06:30:12;;;;;;;18.33;11.87;;;18.10;99.90;;;;;;4388985;32;20230;-62
2021/08/30 06:32:39;;;;;;;16.80;11.33;;;18.10;99.90;;;;;;4388036;32;20211;-62
2021/08/30 06:35:09;;;;;;;17.27;12.40;;;18.20;99.90;;;;;;4391662;32;20655;-63
2021/08/30 06:37:38;;;;;;;16.50;11.07;;;18.20;99.90;;;;;;4388912;32;20163;-62
2021/08/30 06:40:06;;;;;;;14.87;10.77;;;18.20;99.90;;;;;;4392437;32;20190;-62
2021/08/30 06:42:33;;;;;;;17.90;10.93;;;18.30;99.90;;;;;;4389418;32;20163;-61
2021/08/30 06:45:00;;;;;;;22.43;12.87;;;18.40;99.90;;;;;;4392372;32;20194;-62
2021/08/30 06:47:29;;;;;;;18.50;11.60;;;18.20;99.90;;;;;;4387724;32;20203;-62
2021/08/30 06:49:56;;;;;;;19.33;11.87;;;18.20;99.90;;;;;;4392586;32;20166;-62
2021/08/30 06:52:25;;;;;;;16.33;11.03;;;18.30;99.90;;;;;;4388033;32;20144;-61
2021/08/30 06:54:51;;;;;;;18.47;11.40;;;18.40;99.90;;;;;;4385925;32;20163;-63
2021/08/30 06:57:18;;;;;;;16.60;10.87;;;18.50;99.90;;;;;;4391129;32;20160;-61
2021/08/30 06:59:47;;;;;;;17.43;11.63;;;18.50;99.90;;;;;;4390198;32;20171;-62
2021/08/30 07:02:14;;;;;;;20.37;11.93;;;18.50;99.90;;;;;;4387570;32;20603;-62
2021/08/30 07:04:41;;;;;;;17.43;10.50;;;18.50;99.90;;;;;;4388000;32;20174;-63
2021/08/30 07:07:08;;;;;;;18.57;11.53;;;18.60;99.90;;;;;;4388622;32;20175;-62
2021/08/30 07:09:36;;;;;;;19.53;10.73;;;18.60;99.90;;;;;;4383528;32;20180;-62
2021/08/30 07:12:03;;;;;;;18.40;11.87;;;18.70;99.90;;;;;;4388663;32;20208;-62
2021/08/30 07:14:30;;;;;;;14.80;9.97;;;18.80;99.90;;;;;;4388520;32;20155;-62
2021/08/30 07:16:59;;;;;;;18.80;11.27;;;18.90;99.90;;;;;;4386782;32;20172;-60
2021/08/30 07:19:26;;;;;;;26.17;11.73;;;19.00;99.90;;;;;;4390788;32;20152;-61
2021/08/30 07:21:53;;;;;;;16.97;10.30;;;19.20;99.90;;;;;;4390757;32;20152;-62
2021/08/30 07:24:20;;;;;;;19.67;10.47;;;19.20;99.90;;;;;;4388250;32;20148;-62
2021/08/30 07:26:48;;;;;;;19.57;11.20;;;19.30;99.90;;;;;;4389958;32;20166;-63
2021/08/30 07:29:15;;;;;;;20.13;10.93;;;19.40;99.90;;;;;;4389042;32;20144;-61
2021/08/30 07:31:42;;;;;;;17.87;11.13;;;19.40;99.90;;;;;;4387910;32;20167;-61
2021/08/30 07:34:08;;;;;;;15.90;10.37;;;19.40;99.90;;;;;;4389371;32;20457;-62
2021/08/30 07:36:36;;;;;;;17.53;10.73;;;19.40;99.90;;;;;;4390533;32;20592;-61
2021/08/30 07:39:04;;;;;;;20.27;10.87;;;19.50;99.90;;;;;;4390590;32;20485;-63
2021/08/30 07:41:31;;;;;;;13.77;9.87;;;19.60;99.90;;;;;;4389426;32;20194;-64
2021/08/30 07:44:00;;;;;;;14.13;10.27;;;19.60;99.90;;;;;;4386925;32;20243;-62
2021/08/30 07:46:30;;;;;;;18.03;10.93;;;19.60;99.90;;;;;;4389920;32;20181;-61
2021/08/30 07:48:59;;;;;;;15.77;9.87;;;19.70;99.90;;;;;;4389744;32;20152;-61
2021/08/30 07:51:26;;;;;;;14.60;10.53;;;19.70;99.90;;;;;;4388040;32;20153;-61
2021/08/30 07:53:53;;;;;;;14.90;10.40;;;19.60;99.90;;;;;;4390043;32;20229;-62
2021/08/30 07:56:21;;;;;;;18.13;10.47;;;19.30;99.90;;;;;;4390165;32;20210;-61
2021/08/30 07:58:48;;;;;;;20.37;10.70;;;19.10;99.90;;;;;;4388204;32;20206;-62
2021/08/30 08:01:16;;;;;;;16.53;9.60;;;19.10;99.90;;;;;;4388689;32;20172;-63
2021/08/30 08:03:43;;;;;;;15.07;10.17;;;19.10;99.90;;;;;;4388055;32;20207;-61
2021/08/30 08:06:10;;;;;;;16.03;9.77;;;19.00;99.90;;;;;;4386977;32;20265;-62
2021/08/30 08:08:37;;;;;;;18.33;10.37;;;19.20;99.90;;;;;;4389409;32;20152;-62
2021/08/30 08:11:04;;;;;;;13.83;9.77;;;19.20;99.90;;;;;;4388223;32;20145;-62
2021/08/30 08:13:31;;;;;;;13.00;8.90;;;19.30;99.90;;;;;;4386978;32;20174;-63
2021/08/30 08:16:00;;;;;;;15.10;9.77;;;19.50;99.90;;;;;;4388287;32;20778;-61
2021/08/30 08:18:30;;;;;;;15.30;9.53;;;19.90;99.90;;;;;;4389374;32;20163;-63
2021/08/30 08:20:57;;;;;;;16.70;9.40;;;19.90;99.90;;;;;;4390203;32;20539;-62
2021/08/30 08:23:24;;;;;;;11.53;8.77;;;19.90;99.90;;;;;;4387424;32;20183;-62
2021/08/30 08:25:52;;;;;;;15.97;8.87;;;19.90;99.90;;;;;;4390913;32;20591;-62
2021/08/30 08:28:20;;;;;;;13.37;8.47;;;20.00;99.90;;;;;;4389777;32;20167;-63
2021/08/30 08:30:46;;;;;;;13.43;9.63;;;20.60;99.90;;;;;;4389657;32;20144;-62
2021/08/30 08:33:13;;;;;;;13.90;8.43;;;20.70;99.90;;;;;;4390012;32;20179;-63
2021/08/30 08:35:43;;;;;;;13.93;8.67;;;20.80;99.90;;;;;;4386814;32;20485;-64
2021/08/30 08:38:11;;;;;;;19.63;9.40;;;20.80;99.90;;;;;;4387507;32;20183;-63
2021/08/30 08:40:39;;;;;;;15.03;8.33;;;20.90;99.90;;;;;;4387150;32;20931;-63
2021/08/30 08:43:11;;;;;;;14.30;9.53;;;21.10;99.90;;;;;;4389813;32;20152;-63
2021/08/30 08:45:38;;;;;;;15.53;7.80;;;21.40;99.90;;;;;;4387571;32;20180;-63
2021/08/30 08:48:05;;;;;;;16.40;9.00;;;21.80;99.90;;;;;;4388173;32;20152;-62
2021/08/30 08:50:34;;;;;;;21.27;9.70;;;22.00;99.90;;;;;;4387626;32;20196;-61
2021/08/30 08:53:05;;;;;;;14.00;8.77;;;21.70;99.90;;;;;;4386262;32;20140;-62
2021/08/30 08:55:34;;;;;;;15.07;8.47;;;21.70;99.90;;;;;;4387702;32;20157;-63
2021/08/30 08:58:04;;;;;;;15.30;8.80;;;22.00;99.90;;;;;;4389419;32;20144;-63
2021/08/30 09:00:30;;;;;;;14.33;8.40;;;22.00;99.90;;;;;;4386079;32;20208;-62
2021/08/30 09:02:57;;;;;;;11.80;7.97;;;22.20;99.90;;;;;;4388274;32;20167;-63
2021/08/30 09:05:26;;;;;;;16.60;8.73;;;22.40;99.90;;;;;;4384477;32;20148;-63
2021/08/30 09:07:54;;;;;;;12.87;7.80;;;22.50;99.90;;;;;;4385325;32;20583;-62
2021/08/30 09:10:26;;;;;;;14.17;7.50;;;22.40;99.90;;;;;;4384857;32;20504;-62
2021/08/30 09:13:04;;;;;;;11.47;7.03;;;22.50;99.90;;;;;;4388317;32;20255;-63
2021/08/30 09:15:31;;;;;;;12.63;7.97;;;22.70;99.90;;;;;;4388429;32;20148;-62
2021/08/30 09:17:58;;;;;;;13.60;8.03;;;22.90;99.90;;;;;;4387590;32;20189;-63
2021/08/30 09:20:28;;;;;;;12.60;8.07;;;22.90;99.90;;;;;;4389119;32;20174;-63
2021/08/30 09:23:09;;;;;;;15.87;8.97;;;23.10;99.90;;;;;;4387855;32;20140;-63
2021/08/30 09:25:40;;;;;;;15.47;7.93;;;23.10;99.90;;;;;;4388000;32;20151;-63
2021/08/30 09:28:07;;;;;;;12.03;7.50;;;23.70;99.90;;;;;;4383325;32;20145;-63
2021/08/30 09:30:35;;;;;;;14.33;8.10;;;23.70;99.90;;;;;;4378968;32;20172;-62
2021/08/30 09:33:02;;;;;;;10.53;7.03;;;23.80;99.90;;;;;;4379821;32;20169;-64
2021/08/30 09:35:29;;;;;;;9.30;6.87;;;23.70;99.90;;;;;;4387755;32;20198;-64
2021/08/30 09:37:58;;;;;;;12.90;7.47;;;23.60;99.90;;;;;;4390276;32;20148;-62
2021/08/30 09:40:29;;;;;;;13.67;7.17;;;23.30;99.90;;;;;;4386248;32;20144;-63
2021/08/30 09:42:58;;;;;;;16.33;8.10;;;23.30;99.90;;;;;;4388764;32;20155;-63
2021/08/30 09:45:27;;;;;;;14.80;7.93;;;23.40;99.90;;;;;;4387666;32;20187;-63
2021/08/30 09:47:55;;;;;;;17.17;7.50;;;23.50;99.90;;;;;;4378066;32;20144;-59
2021/08/30 09:53:15;;;;;;;15.33;7.73;;;23.60;99.90;;;;;;4363883;32;20195;-63
2021/08/30 09:55:43;;;;;;;12.37;7.20;;;23.80;99.90;;;;;;4373540;32;20211;-62
2021/08/30 09:58:17;;;;;;;11.83;6.47;;;23.60;99.90;;;;;;4367491;32;20315;-64
2021/08/30 10:00:49;;;;;;;10.85;6.68;;;23.80;99.90;;;;;;4370818;32;20178;-63
2021/08/30 10:03:18;;;;;;;13.40;7.00;;;24.00;99.90;;;;;;4375308;32;20272;-64
2021/08/30 10:05:46;;;;;;;8.73;6.50;;;23.80;99.90;;;;;;4367893;32;20362;-63
2021/08/30 10:08:17;;;;;;;11.87;6.90;;;23.70;99.90;;;;;;4376948;32;20694;-64
2021/08/30 10:10:45;;;;;;;8.83;6.57;;;23.30;99.90;;;;;;4381422;32;20140;-63
2021/08/30 10:13:14;;;;;;;9.33;6.53;;;23.20;99.90;;;;;;4388358;32;20153;-63
2021/08/30 10:15:41;;;;;;;8.90;5.70;;;23.10;99.90;;;;;;4386481;32;20140;-64
2021/08/30 10:18:11;;;;;;;11.47;6.67;;;23.10;99.90;;;;;;4390429;32;20170;-64
2021/08/30 10:20:42;;;;;;;10.60;6.20;;;22.80;99.90;;;;;;4388760;32;20156;-63
2021/08/30 10:23:10;;;;;;;10.23;6.17;;;22.70;99.90;;;;;;4390169;32;20184;-63
2021/08/30 10:25:42;;;;;;;7.00;5.30;;;22.60;99.90;;;;;;4389347;32;20168;-64
2021/08/30 10:28:10;;;;;;;8.47;6.30;;;22.80;99.90;;;;;;4393137;32;20237;-64
2021/08/30 10:30:51;;;;;;;10.00;5.63;;;22.90;99.90;;;;;;4395104;32;20481;-63
2021/08/30 10:33:23;;;;;;;9.80;5.93;;;22.90;99.90;;;;;;4391491;32;20180;-63
2021/08/30 10:35:50;;;;;;;9.03;5.87;;;22.80;99.90;;;;;;4378404;32;20564;-63
2021/08/30 10:38:18;;;;;;;9.80;6.30;;;23.10;99.90;;;;;;4382146;32;20560;-63
2021/08/30 10:40:50;;;;;;;11.57;6.37;;;23.40;99.90;;;;;;4393651;32;20490;-63
2021/08/30 10:43:19;;;;;;;6.60;5.57;;;23.30;99.90;;;;;;4392862;32;20578;-64
2021/08/30 10:45:56;;;;;;;6.83;5.43;;;23.50;99.90;;;;;;4391479;32;20224;-63
2021/08/30 10:48:33;;;;;;;11.60;6.23;;;23.70;99.90;;;;;;4392266;32;20201;-63
2021/08/30 10:51:00;;;;;;;10.43;6.10;;;24.00;99.90;;;;;;4383794;32;20148;-64
2021/08/30 10:53:27;;;;;;;7.80;6.55;;;24.40;99.90;;;;;;4384715;32;20155;-63
2021/08/30 10:56:02;;;;;;;8.02;5.75;;;24.70;99.90;;;;;;4386707;32;20212;-64
2021/08/30 10:58:29;;;;;;;9.45;5.28;;;24.90;99.90;;;;;;4388171;32;20201;-65
2021/08/30 11:00:57;;;;;;;10.75;5.95;;;25.00;99.90;;;;;;4391360;32;20521;-64
2021/08/30 11:03:30;;;;;;;7.87;6.20;;;25.00;99.90;;;;;;4389389;32;20594;-64
2021/08/30 11:06:06;;;;;;;11.12;5.82;;;24.70;99.90;;;;;;4372782;32;20577;-64
2021/08/30 11:08:33;;;;;;;8.50;5.35;;;24.60;99.90;;;;;;4375948;32;20194;-64
2021/08/30 11:11:11;;;;;;;9.88;5.72;;;24.60;99.90;;;;;;4376067;32;20152;-64
2021/08/30 11:13:39;;;;;;;6.87;5.32;;;24.80;99.90;;;;;;4374596;32;20156;-65
2021/08/30 11:16:18;;;;;;;8.95;5.97;;;24.90;99.90;;;;;;4374606;32;20176;-64
2021/08/30 11:18:57;;;;;;;13.73;6.15;;;24.70;99.90;;;;;;4373569;32;20148;-65
2021/08/30 11:21:39;;;;;;;7.32;5.62;;;24.40;99.90;;;;;;4371696;32;20144;-62
2021/08/30 11:24:09;;;;;;;10.32;5.93;;;24.30;99.90;;;;;;4375159;32;20171;-63
2021/08/30 11:26:38;;;;;;;8.95;6.45;;;23.90;99.90;;;;;;4372044;32;20620;-63
2021/08/30 11:29:08;;;;;;;8.48;5.85;;;23.50;99.90;;;;;;4374441;32;20164;-65
2021/08/30 11:31:41;;;;;;;7.57;6.00;;;23.50;99.90;;;;;;4376115;32;20156;-64
2021/08/30 11:34:08;;;;;;;9.90;5.60;;;23.70;99.90;;;;;;4375050;32;20207;-65
2021/08/30 11:36:49;;;;;;;7.32;4.82;;;24.00;99.90;;;;;;4374937;32;20144;-65
2021/08/30 11:39:17;;;;;;;7.32;5.22;;;24.30;99.90;;;;;;4372565;32;20454;-65
2021/08/30 11:41:48;;;;;;;6.15;5.32;;;24.50;99.90;;;;;;4367307;32;20161;-64
2021/08/30 11:44:15;;;;;;;8.98;5.53;;;24.10;99.90;;;;;;4372991;32;20155;-64
2021/08/30 11:46:45;;;;;;;7.78;5.40;;;23.80;99.90;;;;;;4374315;32;20152;-64
2021/08/30 11:49:13;;;;;;;8.00;5.07;;;23.50;99.90;;;;;;4374047;32;20175;-64
2021/08/30 11:51:41;;;;;;;8.23;5.05;;;23.30;99.90;;;;;;4374428;32;20141;-65
2021/08/30 11:54:16;;;;;;;7.27;5.40;;;23.50;99.90;;;;;;4373185;32;20568;-65
2021/08/30 11:56:52;;;;;;;8.10;5.20;;;24.10;99.90;;;;;;4375007;32;20140;-63
2021/08/30 11:59:41;;;;;;;9.25;5.62;;;24.40;99.90;;;;;;4374426;32;20443;-65
2021/08/30 12:02:12;;;;;;;7.77;5.17;;;24.20;99.90;;;;;;4341986;33;20191;-64
2021/08/30 12:04:40;;;;;;;6.47;4.93;;;23.70;99.90;;;;;;4342322;33;20141;-64
2021/08/30 12:07:09;;;;;;;8.93;5.50;;;23.80;99.90;;;;;;4341964;33;20948;-64
2021/08/30 12:09:40;;;;;;;8.47;5.03;;;23.80;99.90;;;;;;4340075;33;20192;-64
2021/08/30 12:12:16;;;;;;;7.80;5.25;;;23.50;99.90;;;;;;4341160;33;20728;-64
2021/08/30 12:14:53;;;;;;;6.43;5.00;;;23.30;99.90;;;;;;4341512;33;20179;-64
2021/08/30 12:17:23;;;;;;;7.97;5.37;;;23.10;99.90;;;;;;4338304;32;20200;-65
2021/08/30 12:19:52;;;;;;;9.48;5.40;;;23.10;99.90;;;;;;4344080;33;20180;-64
2021/08/30 12:22:24;;;;;;;8.10;5.07;;;23.30;99.90;;;;;;4344081;33;20479;-65
2021/08/30 12:24:51;;;;;;;9.25;5.50;;;23.60;99.90;;;;;;4344624;33;20691;-65
2021/08/30 12:27:21;;;;;;;7.95;5.70;;;23.70;99.90;;;;;;4343397;33;20293;-65
2021/08/30 12:29:47;;;;;;;7.47;4.93;;;24.10;99.90;;;;;;4343739;33;20699;-65
2021/08/30 12:32:14;;;;;;;7.93;5.40;;;24.10;99.90;;;;;;4337268;33;20513;-66
2021/08/30 12:34:43;;;;;;;9.18;5.50;;;23.60;99.90;;;;;;4333839;33;20240;-64
2021/08/30 12:37:09;;;;;;;8.07;4.40;;;22.50;99.90;;;;;;4339476;33;20157;-64
2021/08/30 12:39:36;;;;;;;5.03;4.37;;;22.50;99.90;;;;;;4361268;32;20689;-64
2021/08/30 12:42:04;;;;;;;8.10;5.17;;;22.60;99.90;;;;;;4372624;32;20153;-64
2021/08/30 12:44:30;;;;;;;7.40;5.10;;;22.90;99.90;;;;;;4375304;32;20307;-65
2021/08/30 12:46:57;;;;;;;9.03;4.73;;;23.30;99.90;;;;;;4374688;32;20212;-63
2021/08/30 12:49:24;;;;;;;7.77;5.47;;;23.50;99.90;;;;;;4374311;32;20485;-66